DCSAG KMQI-TNCM
Flight info
| Callsign | DCSAG |
|---|---|
| Flight time | N/A |
| Altitude | 45000 |
| Route | OHPEA AR8 OXANA/M072F410 L452 KANUX DCT RABAL L454 LUCTI/N0425F410 DCT CAFFE DCT OTMOT |
| Aircraft | E55P/M-SBDFGHJ2RWY/LB2 |
Departure
| Time | 2026-04-18 14:59 |
|---|---|
| Airport | Dare County Regional Airport (KMQI) |
Arrival
| Time | N/A |
|---|---|
| Airport | Princess Juliana International Airport (TNCM) |
| Time | Latitude | Longitude | Altitude | Speed | Heading |
|---|---|---|---|---|---|
| 2026-04-18 14:39 | 35.91715 | -75.70203 | 18 ft | 0 kts | 219° |
| 2026-04-18 14:53 | 35.91702 | -75.70204 | 18 ft | 4 kts | 147° |
| 2026-04-18 14:53 | 35.91716 | -75.70178 | 18 ft | 7 kts | 9° |
| 2026-04-18 14:54 | 35.91758 | -75.70157 | 18 ft | 7 kts | 36° |
| 2026-04-18 14:54 | 35.91785 | -75.70100 | 18 ft | 9 kts | 119° |
| 2026-04-18 14:54 | 35.91749 | -75.70047 | 18 ft | 8 kts | 131° |
| 2026-04-18 14:54 | 35.91730 | -75.69989 | 18 ft | 8 kts | 75° |
| 2026-04-18 14:55 | 35.91754 | -75.69923 | 18 ft | 9 kts | 57° |
| 2026-04-18 14:55 | 35.91803 | -75.69872 | 18 ft | 10 kts | 38° |
| 2026-04-18 14:55 | 35.91860 | -75.69819 | 18 ft | 11 kts | 36° |
| 2026-04-18 14:55 | 35.91923 | -75.69763 | 18 ft | 12 kts | 36° |
| 2026-04-18 14:56 | 35.91990 | -75.69702 | 18 ft | 12 kts | 36° |
| 2026-04-18 14:56 | 35.92062 | -75.69636 | 18 ft | 13 kts | 36° |
| 2026-04-18 14:56 | 35.92138 | -75.69567 | 18 ft | 14 kts | 36° |
| 2026-04-18 14:56 | 35.92220 | -75.69493 | 18 ft | 15 kts | 36° |
| 2026-04-18 14:57 | 35.92303 | -75.69416 | 18 ft | 15 kts | 38° |
| 2026-04-18 14:57 | 35.92378 | -75.69346 | 18 ft | 10 kts | 38° |
| 2026-04-18 14:57 | 35.92375 | -75.69284 | 18 ft | 8 kts | 128° |
| 2026-04-18 14:57 | 35.92343 | -75.69235 | 18 ft | 7 kts | 129° |
| 2026-04-18 14:58 | 35.92313 | -75.69200 | 18 ft | 5 kts | 169° |
| 2026-04-18 14:58 | 35.92286 | -75.69219 | 18 ft | 4 kts | 218° |
| 2026-04-18 14:58 | 35.92242 | -75.69260 | 18 ft | 21 kts | 217° |
| 2026-04-18 14:58 | 35.91881 | -75.69607 | 18 ft | 110 kts | 217° |
| 2026-04-18 14:59 | 35.91132 | -75.70313 | 573 ft | 145 kts | 217° |
| 2026-04-18 14:59 | 35.90244 | -75.71152 | 1379 ft | 181 kts | 217° |
| 2026-04-18 14:59 | 35.89225 | -75.72115 | 2587 ft | 188 kts | 218° |
| 2026-04-18 14:59 | 35.88168 | -75.73103 | 3762 ft | 197 kts | 218° |
| 2026-04-18 15:00 | 35.87003 | -75.74206 | 4681 ft | 214 kts | 219° |
| 2026-04-18 15:00 | 35.85728 | -75.75333 | 5384 ft | 251 kts | 207° |
| 2026-04-18 15:00 | 35.83997 | -75.75494 | 6714 ft | 241 kts | 162° |
| 2026-04-18 15:00 | 35.82545 | -75.74387 | 7965 ft | 263 kts | 136° |
| 2026-04-18 15:01 | 35.81615 | -75.72299 | 8315 ft | 296 kts | 99° |
| 2026-04-18 15:01 | 35.81789 | -75.69797 | 9482 ft | 297 kts | 68° |
| 2026-04-18 15:01 | 35.82939 | -75.67709 | 10559 ft | 298 kts | 43° |
| 2026-04-18 15:01 | 35.84407 | -75.65718 | 10671 ft | 339 kts | 55° |
| 2026-04-18 15:02 | 35.85066 | -75.62898 | 11563 ft | 346 kts | 87° |
| 2026-04-18 15:02 | 35.84631 | -75.59951 | 12426 ft | 357 kts | 112° |
| 2026-04-18 15:02 | 35.83248 | -75.57385 | 13255 ft | 363 kts | 131° |
| 2026-04-18 15:02 | 35.81430 | -75.55210 | 14053 ft | 367 kts | 139° |
| 2026-04-18 15:03 | 35.79439 | -75.53205 | 14832 ft | 371 kts | 142° |
| 2026-04-18 15:03 | 35.77393 | -75.51234 | 15546 ft | 375 kts | 142° |
| 2026-04-18 15:03 | 35.75337 | -75.49224 | 16233 ft | 379 kts | 141° |
| 2026-04-18 15:03 | 35.73294 | -75.47149 | 16874 ft | 382 kts | 140° |
| 2026-04-18 15:04 | 35.71296 | -75.45027 | 17496 ft | 385 kts | 139° |
| 2026-04-18 15:04 | 35.69285 | -75.42806 | 18081 ft | 389 kts | 137° |
| 2026-04-18 15:04 | 35.67297 | -75.40525 | 18650 ft | 392 kts | 136° |
| 2026-04-18 15:04 | 35.65320 | -75.38192 | 19177 ft | 396 kts | 136° |
| 2026-04-18 15:05 | 35.63351 | -75.35813 | 19684 ft | 399 kts | 135° |
| 2026-04-18 15:05 | 35.61382 | -75.33387 | 20176 ft | 402 kts | 134° |
| 2026-04-18 15:05 | 35.59410 | -75.30921 | 20629 ft | 405 kts | 134° |
| 2026-04-18 15:05 | 35.57436 | -75.28428 | 21069 ft | 409 kts | 134° |
| 2026-04-18 15:06 | 35.55450 | -75.25903 | 21511 ft | 411 kts | 133° |
| 2026-04-18 15:06 | 35.53463 | -75.23367 | 21911 ft | 414 kts | 133° |
| 2026-04-18 15:06 | 35.51462 | -75.20806 | 22316 ft | 416 kts | 133° |
| 2026-04-18 15:06 | 35.49455 | -75.18229 | 22699 ft | 419 kts | 133° |
| 2026-04-18 15:07 | 35.47461 | -75.15665 | 23052 ft | 422 kts | 133° |
| 2026-04-18 15:07 | 35.45404 | -75.13019 | 23420 ft | 424 kts | 133° |
| 2026-04-18 15:07 | 35.43366 | -75.10398 | 23753 ft | 426 kts | 133° |
| 2026-04-18 15:07 | 35.41339 | -75.07796 | 24074 ft | 428 kts | 133° |
| 2026-04-18 15:08 | 35.39247 | -75.05120 | 24410 ft | 430 kts | 133° |
| 2026-04-18 15:08 | 35.37196 | -75.02498 | 24702 ft | 432 kts | 133° |
| 2026-04-18 15:08 | 35.35108 | -74.99831 | 25002 ft | 434 kts | 133° |
| 2026-04-18 15:08 | 35.33007 | -74.97151 | 25304 ft | 436 kts | 133° |
| 2026-04-18 15:09 | 35.30901 | -74.94468 | 25565 ft | 438 kts | 133° |
| 2026-04-18 15:09 | 35.28784 | -74.91771 | 25847 ft | 440 kts | 133° |
| 2026-04-18 15:09 | 35.26661 | -74.89068 | 26113 ft | 441 kts | 133° |
| 2026-04-18 15:09 | 35.24528 | -74.86355 | 26357 ft | 443 kts | 133° |
| 2026-04-18 15:10 | 35.22391 | -74.83638 | 26608 ft | 445 kts | 133° |
| 2026-04-18 15:10 | 35.20238 | -74.80902 | 26829 ft | 447 kts | 133° |
| 2026-04-18 15:10 | 35.18079 | -74.78165 | 27072 ft | 448 kts | 133° |
| 2026-04-18 15:10 | 35.15908 | -74.75412 | 27303 ft | 449 kts | 133° |
| 2026-04-18 15:11 | 35.13736 | -74.72661 | 27532 ft | 451 kts | 133° |
| 2026-04-18 15:11 | 35.11545 | -74.69886 | 27731 ft | 452 kts | 133° |
| 2026-04-18 15:11 | 35.09384 | -74.67155 | 27938 ft | 454 kts | 133° |
| 2026-04-18 15:11 | 35.07184 | -74.64374 | 28143 ft | 455 kts | 133° |
| 2026-04-18 15:12 | 35.04979 | -74.61588 | 28339 ft | 456 kts | 133° |
| 2026-04-18 15:12 | 35.02765 | -74.58793 | 28533 ft | 457 kts | 133° |
| 2026-04-18 15:12 | 35.00548 | -74.55997 | 28691 ft | 459 kts | 133° |
| 2026-04-18 15:12 | 34.98326 | -74.53195 | 28864 ft | 460 kts | 133° |
| 2026-04-18 15:13 | 34.96099 | -74.50391 | 29032 ft | 461 kts | 133° |
| 2026-04-18 15:13 | 34.93868 | -74.47583 | 29197 ft | 461 kts | 133° |
| 2026-04-18 15:13 | 34.91633 | -74.44773 | 29355 ft | 462 kts | 133° |
| 2026-04-18 15:13 | 34.89387 | -74.41952 | 29501 ft | 464 kts | 133° |
| 2026-04-18 15:14 | 34.87166 | -74.39165 | 29642 ft | 465 kts | 133° |
| 2026-04-18 15:14 | 34.84883 | -74.36303 | 29800 ft | 466 kts | 133° |
| 2026-04-18 15:14 | 34.82650 | -74.33505 | 29944 ft | 466 kts | 133° |
| 2026-04-18 15:15 | 34.78124 | -74.27843 | 30437 ft | 461 kts | 133° |
| 2026-04-18 15:15 | 34.75904 | -74.25071 | 30891 ft | 456 kts | 133° |
| 2026-04-18 15:15 | 34.73681 | -74.22296 | 31007 ft | 457 kts | 133° |
| 2026-04-18 15:15 | 34.71460 | -74.19526 | 31132 ft | 459 kts | 133° |
| 2026-04-18 15:16 | 34.69228 | -74.16745 | 31279 ft | 460 kts | 133° |
| 2026-04-18 15:16 | 34.66991 | -74.13961 | 31420 ft | 461 kts | 133° |
| 2026-04-18 15:16 | 34.64748 | -74.11170 | 31557 ft | 462 kts | 133° |
| 2026-04-18 15:16 | 34.62496 | -74.08369 | 31675 ft | 463 kts | 133° |
| 2026-04-18 15:17 | 34.58005 | -74.02789 | 31921 ft | 465 kts | 133° |
| 2026-04-18 15:17 | 34.53476 | -73.97172 | 32192 ft | 466 kts | 134° |
| 2026-04-18 15:18 | 34.49696 | -73.92491 | 32397 ft | 467 kts | 134° |
| 2026-04-18 15:18 | 34.47388 | -73.89637 | 32513 ft | 467 kts | 134° |
| 2026-04-18 15:18 | 34.45115 | -73.86827 | 32626 ft | 468 kts | 134° |
| 2026-04-18 15:19 | 34.42860 | -73.84045 | 33258 ft | 455 kts | 134° |
| 2026-04-18 15:19 | 34.40666 | -73.81339 | 33398 ft | 456 kts | 134° |
| 2026-04-18 15:19 | 34.38405 | -73.78626 | 33510 ft | 457 kts | 139° |
| 2026-04-18 15:19 | 34.35805 | -73.76400 | 33614 ft | 458 kts | 150° |
| 2026-04-18 15:20 | 34.29972 | -73.73324 | 33831 ft | 458 kts | 163° |
| 2026-04-18 15:20 | 34.26937 | -73.72176 | 33939 ft | 458 kts | 166° |
| 2026-04-18 15:20 | 34.23858 | -73.71153 | 34049 ft | 458 kts | 167° |
| 2026-04-18 15:21 | 34.20767 | -73.70204 | 34153 ft | 459 kts | 168° |
| 2026-04-18 15:21 | 34.17620 | -73.69274 | 34247 ft | 460 kts | 168° |
| 2026-04-18 15:21 | 34.11385 | -73.67453 | 34434 ft | 462 kts | 168° |
| 2026-04-18 15:22 | 34.05140 | -73.65592 | 34621 ft | 463 kts | 168° |
| 2026-04-18 15:22 | 33.98872 | -73.63665 | 34789 ft | 465 kts | 167° |
| 2026-04-18 15:23 | 33.92596 | -73.61685 | 34948 ft | 467 kts | 167° |
| 2026-04-18 15:23 | 33.86337 | -73.59673 | 35115 ft | 468 kts | 167° |
| 2026-04-18 15:24 | 33.83225 | -73.58664 | 35672 ft | 456 kts | 167° |
| 2026-04-18 15:24 | 33.80157 | -73.57669 | 35785 ft | 457 kts | 167° |
| 2026-04-18 15:24 | 33.73999 | -73.55677 | 35942 ft | 459 kts | 167° |
| 2026-04-18 15:25 | 33.67821 | -73.53682 | 36133 ft | 461 kts | 167° |
| 2026-04-18 15:25 | 33.61606 | -73.51680 | 36299 ft | 462 kts | 167° |
| 2026-04-18 15:26 | 33.55368 | -73.49673 | 36444 ft | 464 kts | 167° |
| 2026-04-18 15:26 | 33.49115 | -73.47665 | 36587 ft | 466 kts | 167° |
| 2026-04-18 15:27 | 33.42839 | -73.45652 | 36757 ft | 467 kts | 167° |
| 2026-04-18 15:27 | 33.36539 | -73.43635 | 36896 ft | 469 kts | 167° |
| 2026-04-18 15:28 | 33.30270 | -73.41630 | 37018 ft | 471 kts | 167° |
| 2026-04-18 15:28 | 33.23880 | -73.39591 | 37140 ft | 472 kts | 168° |
| 2026-04-18 15:29 | 33.17555 | -73.37577 | 37249 ft | 474 kts | 168° |
| 2026-04-18 15:29 | 33.11123 | -73.35532 | 37356 ft | 476 kts | 168° |
| 2026-04-18 15:30 | 33.04760 | -73.33511 | 37466 ft | 477 kts | 168° |
| 2026-04-18 15:30 | 32.98318 | -73.31469 | 37549 ft | 479 kts | 168° |
| 2026-04-18 15:31 | 32.91882 | -73.29430 | 37980 ft | 470 kts | 168° |
| 2026-04-18 15:31 | 32.88740 | -73.28431 | 38230 ft | 468 kts | 168° |
| 2026-04-18 15:31 | 32.85584 | -73.27432 | 38253 ft | 470 kts | 168° |
| 2026-04-18 15:32 | 32.79248 | -73.25433 | 38398 ft | 471 kts | 168° |
| 2026-04-18 15:32 | 32.72895 | -73.23432 | 38509 ft | 473 kts | 169° |
| 2026-04-18 15:33 | 32.66518 | -73.21427 | 38659 ft | 475 kts | 169° |
| 2026-04-18 15:33 | 32.60115 | -73.19415 | 38752 ft | 477 kts | 169° |
| 2026-04-18 15:34 | 32.53676 | -73.17394 | 38889 ft | 478 kts | 169° |
| 2026-04-18 15:34 | 32.47218 | -73.15370 | 38984 ft | 480 kts | 169° |
| 2026-04-18 15:35 | 32.40783 | -73.13354 | 39113 ft | 482 kts | 169° |
| 2026-04-18 15:35 | 32.34292 | -73.11324 | 39241 ft | 483 kts | 169° |
| 2026-04-18 15:36 | 32.27788 | -73.09299 | 39367 ft | 484 kts | 169° |
| 2026-04-18 15:36 | 32.21267 | -73.07272 | 39481 ft | 485 kts | 169° |
| 2026-04-18 15:37 | 32.14736 | -73.05241 | 39615 ft | 485 kts | 169° |
| 2026-04-18 15:37 | 32.08196 | -73.03208 | 39724 ft | 485 kts | 169° |
| 2026-04-18 15:38 | 32.01659 | -73.01180 | 39823 ft | 486 kts | 169° |
| 2026-04-18 15:38 | 31.95128 | -72.99158 | 39826 ft | 489 kts | 169° |
| 2026-04-18 15:39 | 31.88533 | -72.97118 | 39927 ft | 490 kts | 169° |
| 2026-04-18 15:39 | 31.81888 | -72.95066 | 40036 ft | 490 kts | 169° |
| 2026-04-18 15:40 | 31.75325 | -72.93042 | 40118 ft | 491 kts | 169° |
| 2026-04-18 15:40 | 31.72065 | -72.92034 | 40715 ft | 476 kts | 169° |
| 2026-04-18 15:40 | 31.68875 | -72.91046 | 40893 ft | 474 kts | 169° |
| 2026-04-18 15:41 | 31.62481 | -72.89078 | 40985 ft | 476 kts | 169° |
| 2026-04-18 15:41 | 31.56059 | -72.87108 | 41102 ft | 476 kts | 169° |
| 2026-04-18 15:42 | 31.49640 | -72.85142 | 41237 ft | 477 kts | 169° |
| 2026-04-18 15:42 | 31.43209 | -72.83176 | 41343 ft | 478 kts | 169° |
| 2026-04-18 15:43 | 31.36770 | -72.81209 | 41480 ft | 478 kts | 169° |
| 2026-04-18 15:43 | 31.30323 | -72.79242 | 41577 ft | 478 kts | 169° |
| 2026-04-18 15:44 | 31.23911 | -72.77288 | 41685 ft | 479 kts | 168° |
| 2026-04-18 15:44 | 31.17456 | -72.75323 | 41785 ft | 479 kts | 168° |
| 2026-04-18 15:45 | 31.10995 | -72.73359 | 41868 ft | 480 kts | 168° |
| 2026-04-18 15:45 | 31.04530 | -72.71397 | 41944 ft | 480 kts | 168° |
| 2026-04-18 15:46 | 30.98043 | -72.69430 | 42014 ft | 481 kts | 168° |
| 2026-04-18 15:46 | 30.91556 | -72.67466 | 42107 ft | 481 kts | 168° |
| 2026-04-18 15:47 | 30.88320 | -72.66486 | 42403 ft | 473 kts | 168° |
| 2026-04-18 15:47 | 30.85184 | -72.65534 | 42846 ft | 464 kts | 168° |
| 2026-04-18 15:47 | 30.78920 | -72.63639 | 42936 ft | 465 kts | 168° |
| 2026-04-18 15:48 | 30.72657 | -72.61753 | 43060 ft | 465 kts | 168° |
| 2026-04-18 15:48 | 30.66389 | -72.59869 | 43156 ft | 465 kts | 168° |
| 2026-04-18 15:49 | 30.60109 | -72.57981 | 43261 ft | 466 kts | 168° |
| 2026-04-18 15:49 | 30.54113 | -72.55034 | 43340 ft | 471 kts | 152° |
| 2026-04-18 15:50 | 30.48579 | -72.50963 | 43472 ft | 471 kts | 146° |
| 2026-04-18 15:50 | 30.43250 | -72.46525 | 43556 ft | 472 kts | 144° |
| 2026-04-18 15:51 | 30.38871 | -72.42748 | 43617 ft | 472 kts | 143° |
| 2026-04-18 15:51 | 30.33615 | -72.38183 | 43746 ft | 471 kts | 143° |
| 2026-04-18 15:52 | 30.28354 | -72.33628 | 43823 ft | 472 kts | 143° |
| 2026-04-18 15:52 | 30.23115 | -72.29121 | 43891 ft | 472 kts | 144° |
| 2026-04-18 15:53 | 30.17831 | -72.24602 | 43983 ft | 472 kts | 144° |
| 2026-04-18 15:53 | 30.12545 | -72.20107 | 44070 ft | 471 kts | 144° |
| 2026-04-18 15:54 | 30.07255 | -72.15627 | 44128 ft | 472 kts | 144° |
| 2026-04-18 15:54 | 30.01944 | -72.11146 | 44185 ft | 472 kts | 144° |
| 2026-04-18 15:55 | 29.96642 | -72.06685 | 44257 ft | 472 kts | 144° |
| 2026-04-18 15:55 | 29.91340 | -72.02235 | 44488 ft | 466 kts | 144° |
| 2026-04-18 15:56 | 29.88739 | -72.00054 | 44716 ft | 462 kts | 144° |
| 2026-04-18 15:56 | 29.86154 | -71.97889 | 44913 ft | 458 kts | 144° |
| 2026-04-18 15:56 | 29.83578 | -71.95735 | 45041 ft | 455 kts | 144° |
| 2026-04-18 15:56 | 29.81016 | -71.93592 | 45098 ft | 455 kts | 144° |
| 2026-04-18 15:57 | 29.75877 | -71.89304 | 45113 ft | 457 kts | 144° |
| 2026-04-18 15:57 | 29.70742 | -71.85025 | 45113 ft | 459 kts | 145° |
| 2026-04-18 15:58 | 29.65552 | -71.80707 | 45113 ft | 460 kts | 145° |
| 2026-04-18 15:58 | 29.60351 | -71.76386 | 45113 ft | 462 kts | 145° |
| 2026-04-18 15:59 | 29.55130 | -71.72053 | 45113 ft | 463 kts | 145° |
| 2026-04-18 15:59 | 29.49891 | -71.67713 | 45113 ft | 465 kts | 145° |
| 2026-04-18 16:00 | 29.44633 | -71.63366 | 45113 ft | 466 kts | 145° |
| 2026-04-18 16:00 | 29.39397 | -71.59041 | 45113 ft | 467 kts | 145° |
| 2026-04-18 16:01 | 29.34119 | -71.54687 | 45113 ft | 468 kts | 145° |
| 2026-04-18 16:01 | 29.28826 | -71.50326 | 45113 ft | 468 kts | 145° |
| 2026-04-18 16:02 | 29.23533 | -71.45970 | 45113 ft | 469 kts | 145° |
| 2026-04-18 16:02 | 29.18237 | -71.41616 | 45113 ft | 469 kts | 145° |
| 2026-04-18 16:03 | 29.12909 | -71.37242 | 45113 ft | 472 kts | 145° |
| 2026-04-18 16:03 | 29.07590 | -71.32881 | 45113 ft | 474 kts | 145° |
| 2026-04-18 16:04 | 29.02229 | -71.28491 | 45112 ft | 475 kts | 145° |
| 2026-04-18 16:04 | 28.96819 | -71.24066 | 45112 ft | 475 kts | 145° |
| 2026-04-18 16:05 | 28.91438 | -71.19671 | 45112 ft | 475 kts | 145° |
| 2026-04-18 16:05 | 28.86100 | -71.15316 | 45112 ft | 474 kts | 145° |
| 2026-04-18 16:06 | 28.80696 | -71.10913 | 45113 ft | 474 kts | 145° |
| 2026-04-18 16:06 | 28.75328 | -71.06545 | 45114 ft | 474 kts | 145° |
| 2026-04-18 16:07 | 28.70005 | -71.02219 | 45113 ft | 471 kts | 145° |
| 2026-04-18 16:07 | 28.64665 | -70.97885 | 45113 ft | 470 kts | 145° |
| 2026-04-18 16:08 | 28.59342 | -70.93569 | 45113 ft | 469 kts | 145° |
| 2026-04-18 16:08 | 28.54022 | -70.89262 | 45113 ft | 469 kts | 145° |
| 2026-04-18 16:09 | 28.48705 | -70.84964 | 45113 ft | 469 kts | 145° |
| 2026-04-18 16:09 | 28.43389 | -70.80671 | 45113 ft | 468 kts | 146° |
| 2026-04-18 16:10 | 28.38072 | -70.76383 | 45113 ft | 468 kts | 146° |
| 2026-04-18 16:10 | 28.32759 | -70.72104 | 45113 ft | 468 kts | 146° |
| 2026-04-18 16:11 | 28.27446 | -70.67829 | 45112 ft | 468 kts | 146° |
| 2026-04-18 16:11 | 28.22141 | -70.63567 | 45112 ft | 467 kts | 146° |
| 2026-04-18 16:12 | 28.16828 | -70.59303 | 45112 ft | 467 kts | 146° |
| 2026-04-18 16:12 | 28.11553 | -70.55076 | 45114 ft | 467 kts | 146° |
| 2026-04-18 16:13 | 28.06252 | -70.50832 | 45118 ft | 466 kts | 146° |
| 2026-04-18 16:13 | 28.00950 | -70.46593 | 45118 ft | 466 kts | 146° |
| 2026-04-18 16:14 | 27.95648 | -70.42359 | 45118 ft | 466 kts | 146° |
| 2026-04-18 16:14 | 27.90353 | -70.38136 | 45118 ft | 466 kts | 146° |
| 2026-04-18 16:15 | 27.82396 | -70.31800 | 45118 ft | 466 kts | 146° |
| 2026-04-18 16:16 | 27.77096 | -70.27586 | 45118 ft | 465 kts | 146° |
| 2026-04-18 16:16 | 27.71803 | -70.23383 | 45117 ft | 465 kts | 146° |
| 2026-04-18 16:17 | 27.66509 | -70.19183 | 45117 ft | 465 kts | 146° |
| 2026-04-18 16:17 | 27.61176 | -70.14958 | 45117 ft | 465 kts | 146° |
| 2026-04-18 16:18 | 27.55911 | -70.10792 | 45113 ft | 465 kts | 146° |
| 2026-04-18 16:18 | 27.50609 | -70.06601 | 45112 ft | 465 kts | 146° |
| 2026-04-18 16:19 | 27.45306 | -70.02415 | 45112 ft | 465 kts | 146° |
| 2026-04-18 16:19 | 27.39998 | -69.98229 | 45112 ft | 465 kts | 146° |
| 2026-04-18 16:20 | 27.34697 | -69.94055 | 45112 ft | 465 kts | 146° |
| 2026-04-18 16:20 | 27.29391 | -69.89881 | 45111 ft | 465 kts | 146° |
| 2026-04-18 16:21 | 27.24082 | -69.85710 | 45111 ft | 465 kts | 146° |
| 2026-04-18 16:21 | 27.18813 | -69.81575 | 45111 ft | 465 kts | 146° |
| 2026-04-18 16:22 | 27.13514 | -69.77421 | 45111 ft | 465 kts | 146° |
| 2026-04-18 16:22 | 27.08205 | -69.73265 | 45110 ft | 465 kts | 146° |
| 2026-04-18 16:23 | 27.02900 | -69.69117 | 45110 ft | 465 kts | 147° |
| 2026-04-18 16:23 | 26.94939 | -69.62900 | 45110 ft | 465 kts | 147° |
| 2026-04-18 16:24 | 26.89626 | -69.58757 | 45108 ft | 465 kts | 147° |
| 2026-04-18 16:24 | 26.84345 | -69.54644 | 45089 ft | 465 kts | 147° |
| 2026-04-18 16:25 | 26.79034 | -69.50511 | 45091 ft | 465 kts | 147° |
| 2026-04-18 16:25 | 26.73616 | -69.46564 | 45091 ft | 463 kts | 156° |
| 2026-04-18 16:26 | 26.67598 | -69.44133 | 45091 ft | 458 kts | 168° |
| 2026-04-18 16:26 | 26.61393 | -69.42558 | 45094 ft | 456 kts | 172° |
| 2026-04-18 16:27 | 26.55151 | -69.41271 | 45096 ft | 456 kts | 173° |
| 2026-04-18 16:27 | 26.48899 | -69.40057 | 45096 ft | 456 kts | 174° |
| 2026-04-18 16:28 | 26.42657 | -69.38844 | 45095 ft | 456 kts | 173° |
| 2026-04-18 16:28 | 26.37464 | -69.37819 | 45095 ft | 456 kts | 173° |
| 2026-04-18 16:29 | 26.31222 | -69.36566 | 45094 ft | 456 kts | 173° |
| 2026-04-18 16:29 | 26.24970 | -69.35294 | 45093 ft | 456 kts | 173° |
| 2026-04-18 16:30 | 26.18725 | -69.34010 | 45093 ft | 456 kts | 173° |
| 2026-04-18 16:30 | 26.12482 | -69.32718 | 45092 ft | 456 kts | 173° |
| 2026-04-18 16:31 | 26.06242 | -69.31421 | 45091 ft | 456 kts | 173° |
| 2026-04-18 16:31 | 25.99992 | -69.30119 | 45091 ft | 456 kts | 173° |
| 2026-04-18 16:32 | 25.93774 | -69.28823 | 45090 ft | 456 kts | 173° |
| 2026-04-18 16:32 | 25.87525 | -69.27520 | 45089 ft | 457 kts | 173° |
| 2026-04-18 16:33 | 25.81265 | -69.26215 | 45089 ft | 457 kts | 173° |
| 2026-04-18 16:33 | 25.75010 | -69.24911 | 45088 ft | 457 kts | 173° |
| 2026-04-18 16:34 | 25.68762 | -69.23610 | 45087 ft | 457 kts | 173° |
| 2026-04-18 16:34 | 25.62545 | -69.22317 | 45087 ft | 457 kts | 173° |
| 2026-04-18 16:35 | 25.56294 | -69.21017 | 45086 ft | 457 kts | 173° |
| 2026-04-18 16:35 | 25.50042 | -69.19719 | 45085 ft | 457 kts | 173° |
| 2026-04-18 16:36 | 25.43790 | -69.18422 | 45085 ft | 457 kts | 173° |
| 2026-04-18 16:36 | 25.37535 | -69.17126 | 45084 ft | 457 kts | 173° |
| 2026-04-18 16:37 | 25.31284 | -69.15832 | 45083 ft | 457 kts | 173° |
| 2026-04-18 16:37 | 25.25027 | -69.14538 | 45084 ft | 457 kts | 173° |
| 2026-04-18 16:38 | 25.18769 | -69.13245 | 45085 ft | 457 kts | 173° |
| 2026-04-18 16:38 | 25.12505 | -69.11952 | 45085 ft | 457 kts | 173° |
| 2026-04-18 16:39 | 25.06248 | -69.10661 | 45084 ft | 457 kts | 173° |
| 2026-04-18 16:39 | 25.00171 | -69.08746 | 45084 ft | 462 kts | 156° |
| 2026-04-18 16:40 | 24.94701 | -69.04970 | 45084 ft | 465 kts | 144° |
| 2026-04-18 16:40 | 24.89630 | -69.00519 | 45083 ft | 466 kts | 141° |
| 2026-04-18 16:41 | 24.82283 | -68.93544 | 45082 ft | 466 kts | 140° |
| 2026-04-18 16:42 | 24.77400 | -68.88858 | 45082 ft | 466 kts | 140° |
| 2026-04-18 16:42 | 24.72500 | -68.84181 | 45081 ft | 465 kts | 140° |
| 2026-04-18 16:43 | 24.67592 | -68.79532 | 45081 ft | 465 kts | 140° |
| 2026-04-18 16:43 | 24.62675 | -68.74906 | 45081 ft | 465 kts | 141° |
| 2026-04-18 16:44 | 24.57756 | -68.70305 | 45080 ft | 464 kts | 141° |
| 2026-04-18 16:44 | 24.52822 | -68.65711 | 45080 ft | 464 kts | 141° |
| 2026-04-18 16:45 | 24.47899 | -68.61142 | 45080 ft | 463 kts | 141° |
| 2026-04-18 16:45 | 24.42974 | -68.56586 | 45079 ft | 463 kts | 141° |
| 2026-04-18 16:46 | 24.38052 | -68.52043 | 45079 ft | 462 kts | 141° |
| 2026-04-18 16:46 | 24.33131 | -68.47508 | 45079 ft | 462 kts | 141° |
| 2026-04-18 16:47 | 24.28204 | -68.42976 | 45078 ft | 462 kts | 141° |
| 2026-04-18 16:47 | 24.23277 | -68.38451 | 45078 ft | 461 kts | 141° |
| 2026-04-18 16:48 | 24.18356 | -68.33937 | 45077 ft | 460 kts | 141° |
| 2026-04-18 16:48 | 24.13440 | -68.29433 | 45079 ft | 460 kts | 142° |
| 2026-04-18 16:49 | 24.08525 | -68.24936 | 45079 ft | 460 kts | 142° |
| 2026-04-18 16:49 | 24.03614 | -68.20447 | 45079 ft | 459 kts | 142° |
| 2026-04-18 16:50 | 23.98746 | -68.16002 | 45079 ft | 459 kts | 142° |
| 2026-04-18 16:50 | 23.93839 | -68.11527 | 45078 ft | 459 kts | 142° |
| 2026-04-18 16:51 | 23.88935 | -68.07059 | 45078 ft | 459 kts | 142° |
| 2026-04-18 16:51 | 23.84026 | -68.02592 | 45078 ft | 459 kts | 142° |
| 2026-04-18 16:52 | 23.79119 | -67.98130 | 45077 ft | 459 kts | 142° |
| 2026-04-18 16:52 | 23.74213 | -67.93675 | 45077 ft | 459 kts | 142° |
| 2026-04-18 16:53 | 23.69304 | -67.89220 | 45077 ft | 459 kts | 142° |
| 2026-04-18 16:53 | 23.64392 | -67.84768 | 45077 ft | 458 kts | 142° |
| 2026-04-18 16:54 | 23.59517 | -67.80354 | 45076 ft | 458 kts | 142° |
| 2026-04-18 16:54 | 23.54622 | -67.75926 | 45076 ft | 457 kts | 142° |
| 2026-04-18 16:55 | 23.49721 | -67.71497 | 45076 ft | 457 kts | 142° |
| 2026-04-18 16:55 | 23.44796 | -67.67051 | 45076 ft | 457 kts | 142° |
| 2026-04-18 16:56 | 23.39928 | -67.62661 | 45075 ft | 457 kts | 142° |
| 2026-04-18 16:56 | 23.35033 | -67.58250 | 45075 ft | 457 kts | 142° |
| 2026-04-18 16:57 | 23.30105 | -67.53814 | 45075 ft | 456 kts | 142° |
| 2026-04-18 16:57 | 23.25244 | -67.49443 | 45075 ft | 456 kts | 142° |
| 2026-04-18 16:58 | 23.20353 | -67.45050 | 45074 ft | 455 kts | 142° |
| 2026-04-18 16:58 | 23.15467 | -67.40665 | 45074 ft | 455 kts | 142° |
| 2026-04-18 16:59 | 23.10584 | -67.36286 | 45074 ft | 455 kts | 142° |
| 2026-04-18 16:59 | 23.05696 | -67.31909 | 45074 ft | 455 kts | 142° |
| 2026-04-18 17:00 | 23.00817 | -67.27543 | 45074 ft | 455 kts | 142° |
| 2026-04-18 17:00 | 22.95931 | -67.23175 | 45073 ft | 454 kts | 142° |
| 2026-04-18 17:01 | 22.91044 | -67.18810 | 45073 ft | 454 kts | 142° |
| 2026-04-18 17:01 | 22.86183 | -67.14474 | 45073 ft | 454 kts | 142° |
| 2026-04-18 17:02 | 22.81307 | -67.10127 | 45073 ft | 453 kts | 142° |
| 2026-04-18 17:02 | 22.76437 | -67.05790 | 45073 ft | 453 kts | 142° |
| 2026-04-18 17:03 | 22.71562 | -67.01453 | 45061 ft | 453 kts | 143° |
| 2026-04-18 17:03 | 22.66690 | -66.97122 | 45058 ft | 453 kts | 143° |
| 2026-04-18 17:04 | 22.61819 | -66.92797 | 45057 ft | 452 kts | 143° |
| 2026-04-18 17:04 | 22.56953 | -66.88480 | 45057 ft | 452 kts | 143° |
| 2026-04-18 17:05 | 22.52084 | -66.84165 | 45056 ft | 451 kts | 143° |
| 2026-04-18 17:05 | 22.47224 | -66.79862 | 45056 ft | 451 kts | 143° |
| 2026-04-18 17:06 | 22.43182 | -66.76285 | 45055 ft | 451 kts | 143° |
| 2026-04-18 17:06 | 22.38331 | -66.71997 | 45055 ft | 451 kts | 143° |
| 2026-04-18 17:07 | 22.33480 | -66.67713 | 45055 ft | 450 kts | 143° |
| 2026-04-18 17:07 | 22.28620 | -66.63425 | 45054 ft | 450 kts | 143° |
| 2026-04-18 17:08 | 22.23797 | -66.59173 | 45054 ft | 450 kts | 143° |
| 2026-04-18 17:08 | 22.18953 | -66.54907 | 45053 ft | 449 kts | 143° |
| 2026-04-18 17:09 | 22.14103 | -66.50640 | 45053 ft | 449 kts | 143° |
| 2026-04-18 17:09 | 22.09256 | -66.46379 | 45052 ft | 448 kts | 143° |
| 2026-04-18 17:10 | 22.04416 | -66.42128 | 45052 ft | 448 kts | 143° |
| 2026-04-18 17:10 | 21.99581 | -66.37885 | 45052 ft | 448 kts | 143° |
| 2026-04-18 17:11 | 21.94749 | -66.33649 | 45051 ft | 447 kts | 143° |
| 2026-04-18 17:11 | 21.89923 | -66.29422 | 45051 ft | 447 kts | 143° |
| 2026-04-18 17:12 | 21.85097 | -66.25199 | 45051 ft | 447 kts | 143° |
| 2026-04-18 17:12 | 21.80298 | -66.21003 | 45051 ft | 447 kts | 143° |
| 2026-04-18 17:13 | 21.75462 | -66.16779 | 45050 ft | 447 kts | 143° |
| 2026-04-18 17:13 | 21.70631 | -66.12562 | 45050 ft | 447 kts | 143° |
| 2026-04-18 17:14 | 21.65800 | -66.08350 | 45048 ft | 447 kts | 143° |
| 2026-04-18 17:14 | 21.60971 | -66.04144 | 45045 ft | 447 kts | 143° |
| 2026-04-18 17:15 | 21.56145 | -65.99942 | 45048 ft | 447 kts | 143° |
| 2026-04-18 17:15 | 21.51314 | -65.95741 | 45052 ft | 446 kts | 143° |
| 2026-04-18 17:16 | 21.46484 | -65.91544 | 45050 ft | 446 kts | 143° |
| 2026-04-18 17:16 | 21.41682 | -65.87376 | 45049 ft | 446 kts | 143° |
| 2026-04-18 17:17 | 21.36851 | -65.83185 | 45049 ft | 446 kts | 143° |
| 2026-04-18 17:17 | 21.32014 | -65.78993 | 45049 ft | 446 kts | 143° |
| 2026-04-18 17:18 | 21.27189 | -65.74815 | 45046 ft | 446 kts | 143° |
| 2026-04-18 17:18 | 21.22358 | -65.70636 | 45041 ft | 446 kts | 143° |
| 2026-04-18 17:19 | 21.17522 | -65.66456 | 45040 ft | 446 kts | 143° |
| 2026-04-18 17:19 | 21.12688 | -65.62281 | 45040 ft | 446 kts | 143° |
| 2026-04-18 17:20 | 21.07856 | -65.58112 | 45040 ft | 445 kts | 143° |
| 2026-04-18 17:20 | 21.02649 | -65.54730 | 45039 ft | 434 kts | 171° |
| 2026-04-18 17:20 | 20.99677 | -65.54384 | 45041 ft | 428 kts | 184° |
| 2026-04-18 17:21 | 20.96721 | -65.54561 | 45041 ft | 425 kts | 190° |
| 2026-04-18 17:21 | 20.90892 | -65.55560 | 45040 ft | 423 kts | 194° |
| 2026-04-18 17:22 | 20.85137 | -65.56851 | 45039 ft | 422 kts | 196° |
| 2026-04-18 17:22 | 20.79428 | -65.58210 | 45039 ft | 422 kts | 196° |
| 2026-04-18 17:23 | 20.73691 | -65.59597 | 45039 ft | 422 kts | 196° |
| 2026-04-18 17:23 | 20.67963 | -65.60988 | 45038 ft | 422 kts | 196° |
| 2026-04-18 17:24 | 20.62234 | -65.62382 | 45038 ft | 422 kts | 196° |
| 2026-04-18 17:24 | 20.56502 | -65.63783 | 45038 ft | 422 kts | 196° |
| 2026-04-18 17:25 | 20.50803 | -65.65184 | 45039 ft | 422 kts | 196° |
| 2026-04-18 17:25 | 20.45088 | -65.66592 | 45045 ft | 422 kts | 196° |
| 2026-04-18 17:26 | 20.39356 | -65.68004 | 45046 ft | 422 kts | 196° |
| 2026-04-18 17:26 | 20.33627 | -65.69416 | 45046 ft | 422 kts | 196° |
| 2026-04-18 17:27 | 20.27906 | -65.70828 | 45046 ft | 422 kts | 196° |
| 2026-04-18 17:27 | 20.19322 | -65.72954 | 45045 ft | 422 kts | 196° |
| 2026-04-18 17:28 | 20.16464 | -65.73666 | 44692 ft | 422 kts | 197° |
| 2026-04-18 17:28 | 20.13599 | -65.74376 | 44229 ft | 420 kts | 197° |
| 2026-04-18 17:28 | 20.10796 | -65.75063 | 43783 ft | 418 kts | 197° |
| 2026-04-18 17:28 | 20.07959 | -65.75751 | 43332 ft | 416 kts | 197° |
| 2026-04-18 17:29 | 20.05133 | -65.76428 | 42881 ft | 415 kts | 197° |
| 2026-04-18 17:29 | 20.02319 | -65.77096 | 42431 ft | 414 kts | 197° |
| 2026-04-18 17:29 | 19.99507 | -65.77758 | 41980 ft | 413 kts | 197° |
| 2026-04-18 17:29 | 19.96705 | -65.78411 | 41530 ft | 412 kts | 197° |
| 2026-04-18 17:30 | 19.93911 | -65.79057 | 41080 ft | 411 kts | 197° |
| 2026-04-18 17:30 | 19.91121 | -65.79696 | 40630 ft | 410 kts | 197° |
| 2026-04-18 17:30 | 19.88335 | -65.80328 | 40179 ft | 409 kts | 197° |
| 2026-04-18 17:30 | 19.85544 | -65.80956 | 39727 ft | 407 kts | 197° |
| 2026-04-18 17:31 | 19.82767 | -65.81575 | 39276 ft | 406 kts | 197° |
| 2026-04-18 17:31 | 19.80003 | -65.82184 | 38825 ft | 405 kts | 197° |
| 2026-04-18 17:31 | 19.77251 | -65.82786 | 38375 ft | 403 kts | 197° |
| 2026-04-18 17:31 | 19.74507 | -65.83385 | 37924 ft | 402 kts | 197° |
| 2026-04-18 17:32 | 19.71780 | -65.83983 | 37469 ft | 400 kts | 197° |
| 2026-04-18 17:32 | 19.69057 | -65.84581 | 37016 ft | 398 kts | 197° |
| 2026-04-18 17:32 | 19.66356 | -65.85177 | 36566 ft | 397 kts | 197° |
| 2026-04-18 17:32 | 19.63645 | -65.85777 | 36114 ft | 395 kts | 196° |
| 2026-04-18 17:33 | 19.60988 | -65.86370 | 35669 ft | 394 kts | 197° |
| 2026-04-18 17:33 | 19.55641 | -65.87571 | 34768 ft | 391 kts | 197° |
| 2026-04-18 17:33 | 19.53025 | -65.88328 | 34315 ft | 386 kts | 205° |
| 2026-04-18 17:34 | 19.50589 | -65.89479 | 33865 ft | 382 kts | 211° |
| 2026-04-18 17:34 | 19.48264 | -65.90825 | 33415 ft | 379 kts | 214° |
| 2026-04-18 17:34 | 19.46002 | -65.92258 | 32964 ft | 378 kts | 216° |
| 2026-04-18 17:34 | 19.43772 | -65.93729 | 32513 ft | 377 kts | 216° |
| 2026-04-18 17:35 | 19.41557 | -65.95215 | 32062 ft | 377 kts | 216° |
| 2026-04-18 17:35 | 19.39344 | -65.96712 | 31611 ft | 376 kts | 216° |
| 2026-04-18 17:35 | 19.37136 | -65.98212 | 31160 ft | 376 kts | 217° |
| 2026-04-18 17:35 | 19.34929 | -65.99714 | 30709 ft | 377 kts | 217° |
| 2026-04-18 17:36 | 19.32724 | -66.01214 | 30259 ft | 377 kts | 217° |
| 2026-04-18 17:36 | 19.30517 | -66.02718 | 29808 ft | 377 kts | 217° |
| 2026-04-18 17:36 | 19.28316 | -66.04220 | 29358 ft | 377 kts | 217° |
| 2026-04-18 17:36 | 19.26115 | -66.05728 | 28909 ft | 377 kts | 217° |
| 2026-04-18 17:37 | 19.23931 | -66.07233 | 28462 ft | 378 kts | 217° |
| 2026-04-18 17:37 | 19.21735 | -66.08755 | 28012 ft | 378 kts | 217° |
| 2026-04-18 17:37 | 19.19537 | -66.10289 | 27561 ft | 378 kts | 216° |
| 2026-04-18 17:37 | 19.17338 | -66.11834 | 27110 ft | 379 kts | 217° |
| 2026-04-18 17:38 | 19.15152 | -66.13380 | 26659 ft | 379 kts | 217° |
| 2026-04-18 17:38 | 19.12962 | -66.14941 | 26206 ft | 380 kts | 217° |
| 2026-04-18 17:38 | 19.10765 | -66.16517 | 25753 ft | 380 kts | 217° |
| 2026-04-18 17:38 | 19.08578 | -66.18094 | 25315 ft | 380 kts | 217° |
| 2026-04-18 17:39 | 19.06380 | -66.19690 | 25217 ft | 391 kts | 217° |
| 2026-04-18 17:39 | 19.04106 | -66.21354 | 25120 ft | 402 kts | 217° |
| 2026-04-18 17:39 | 19.01790 | -66.23054 | 25055 ft | 409 kts | 217° |
| 2026-04-18 17:39 | 18.99436 | -66.24788 | 25039 ft | 414 kts | 217° |
| 2026-04-18 17:40 | 18.96933 | -66.26324 | 25035 ft | 420 kts | 202° |
| 2026-04-18 17:40 | 18.94076 | -66.26871 | 25036 ft | 428 kts | 181° |
| 2026-04-18 17:40 | 18.91147 | -66.26260 | 25034 ft | 435 kts | 159° |
| 2026-04-18 17:40 | 18.88581 | -66.24537 | 25032 ft | 441 kts | 137° |
| 2026-04-18 17:41 | 18.86746 | -66.21945 | 25033 ft | 444 kts | 118° |
| 2026-04-18 17:41 | 18.85604 | -66.18921 | 25034 ft | 445 kts | 107° |
| 2026-04-18 17:41 | 18.84867 | -66.15740 | 25033 ft | 446 kts | 101° |
| 2026-04-18 17:41 | 18.84353 | -66.12512 | 25032 ft | 444 kts | 98° |
| 2026-04-18 17:42 | 18.83951 | -66.09306 | 25031 ft | 437 kts | 96° |
| 2026-04-18 17:42 | 18.83601 | -66.06136 | 25032 ft | 432 kts | 96° |
| 2026-04-18 17:42 | 18.83265 | -66.03001 | 25033 ft | 428 kts | 96° |
| 2026-04-18 17:42 | 18.82922 | -65.99896 | 25035 ft | 424 kts | 96° |
| 2026-04-18 17:43 | 18.82558 | -65.96806 | 25037 ft | 421 kts | 97° |
| 2026-04-18 17:43 | 18.82174 | -65.93755 | 25038 ft | 419 kts | 97° |
| 2026-04-18 17:43 | 18.81763 | -65.90711 | 25039 ft | 417 kts | 98° |
| 2026-04-18 17:43 | 18.81331 | -65.87686 | 25039 ft | 417 kts | 98° |
| 2026-04-18 17:44 | 18.80874 | -65.84654 | 25040 ft | 419 kts | 99° |
| 2026-04-18 17:44 | 18.80396 | -65.81618 | 25041 ft | 420 kts | 99° |
| 2026-04-18 17:44 | 18.79899 | -65.78574 | 25041 ft | 421 kts | 99° |
| 2026-04-18 17:44 | 18.79560 | -65.76551 | 25041 ft | 422 kts | 99° |
| 2026-04-18 17:45 | 18.78867 | -65.72513 | 25042 ft | 423 kts | 100° |
| 2026-04-18 17:45 | 18.78505 | -65.70450 | 25042 ft | 423 kts | 100° |
| 2026-04-18 17:45 | 18.77959 | -65.67386 | 25042 ft | 424 kts | 100° |
| 2026-04-18 17:45 | 18.77409 | -65.64338 | 25043 ft | 424 kts | 101° |
| 2026-04-18 17:46 | 18.76858 | -65.61316 | 25041 ft | 424 kts | 101° |
| 2026-04-18 17:46 | 18.76295 | -65.58253 | 25044 ft | 425 kts | 101° |
| 2026-04-18 17:46 | 18.75728 | -65.55190 | 25046 ft | 425 kts | 101° |
| 2026-04-18 17:46 | 18.75158 | -65.52132 | 25046 ft | 425 kts | 101° |
| 2026-04-18 17:47 | 18.74584 | -65.49063 | 25046 ft | 425 kts | 101° |
| 2026-04-18 17:47 | 18.74009 | -65.46003 | 25046 ft | 425 kts | 101° |
| 2026-04-18 17:47 | 18.73432 | -65.42944 | 25045 ft | 425 kts | 101° |
| 2026-04-18 17:47 | 18.72852 | -65.39881 | 25044 ft | 425 kts | 101° |
| 2026-04-18 17:48 | 18.72270 | -65.36824 | 25042 ft | 426 kts | 101° |
| 2026-04-18 17:48 | 18.71686 | -65.33760 | 25043 ft | 426 kts | 101° |